sensor_id;sensor_type;location;lat;lon;timestamp;P1;durP1;ratioP1;P2;durP2;ratioP2
13185;SDS011;6658;53.080;7.428;2022-07-17T00:02:22;7.23;;;2.67;;
13185;SDS011;6658;53.080;7.428;2022-07-17T00:04:48;5.47;;;2.50;;
13185;SDS011;6658;53.080;7.428;2022-07-17T00:07:14;4.83;;;2.90;;
13185;SDS011;6658;53.080;7.428;2022-07-17T00:09:39;3.03;;;2.00;;
13185;SDS011;6658;53.080;7.428;2022-07-17T00:12:05;6.03;;;2.53;;
13185;SDS011;6658;53.080;7.428;2022-07-17T00:14:31;7.83;;;2.90;;
13185;SDS011;6658;53.080;7.428;2022-07-17T00:16:57;3.70;;;2.50;;
13185;SDS011;6658;53.080;7.428;2022-07-17T00:19:23;5.23;;;2.23;;
13185;SDS011;6658;53.080;7.428;2022-07-17T00:21:49;6.77;;;2.50;;
13185;SDS011;6658;53.080;7.428;2022-07-17T00:24:15;4.53;;;2.10;;
13185;SDS011;6658;53.080;7.428;2022-07-17T00:26:48;5.90;;;2.37;;
13185;SDS011;6658;53.080;7.428;2022-07-17T00:29:15;4.10;;;2.30;;
13185;SDS011;6658;53.080;7.428;2022-07-17T00:31:41;4.27;;;2.20;;
13185;SDS011;6658;53.080;7.428;2022-07-17T00:34:07;6.70;;;2.40;;
13185;SDS011;6658;53.080;7.428;2022-07-17T00:36:33;5.50;;;2.50;;
13185;SDS011;6658;53.080;7.428;2022-07-17T00:38:58;4.13;;;1.70;;
13185;SDS011;6658;53.080;7.428;2022-07-17T00:41:24;4.30;;;2.17;;
13185;SDS011;6658;53.080;7.428;2022-07-17T00:43:50;3.33;;;2.03;;
13185;SDS011;6658;53.080;7.428;2022-07-17T00:46:16;8.73;;;3.23;;
13185;SDS011;6658;53.080;7.428;2022-07-17T00:48:42;4.17;;;2.47;;
13185;SDS011;6658;53.080;7.428;2022-07-17T00:51:07;4.10;;;2.40;;
13185;SDS011;6658;53.080;7.428;2022-07-17T00:53:34;3.67;;;2.50;;
13185;SDS011;6658;53.080;7.428;2022-07-17T00:56:02;6.07;;;2.50;;
13185;SDS011;6658;53.080;7.428;2022-07-17T00:58:29;6.10;;;2.80;;
13185;SDS011;6658;53.080;7.428;2022-07-17T01:00:55;4.90;;;2.53;;
13185;SDS011;6658;53.080;7.428;2022-07-17T01:03:22;5.30;;;3.03;;
13185;SDS011;6658;53.080;7.428;2022-07-17T01:05:49;5.50;;;3.23;;
13185;SDS011;6658;53.080;7.428;2022-07-17T01:08:15;5.40;;;2.63;;
13185;SDS011;6658;53.080;7.428;2022-07-17T01:10:41;5.13;;;2.67;;
13185;SDS011;6658;53.080;7.428;2022-07-17T01:13:07;3.80;;;2.63;;
13185;SDS011;6658;53.080;7.428;2022-07-17T01:15:37;5.03;;;2.70;;
13185;SDS011;6658;53.080;7.428;2022-07-17T01:18:05;4.57;;;2.70;;
13185;SDS011;6658;53.080;7.428;2022-07-17T01:20:32;4.73;;;3.10;;
13185;SDS011;6658;53.080;7.428;2022-07-17T01:22:58;3.73;;;2.37;;
13185;SDS011;6658;53.080;7.428;2022-07-17T01:25:23;4.23;;;2.70;;
13185;SDS011;6658;53.080;7.428;2022-07-17T01:27:50;3.47;;;2.27;;
13185;SDS011;6658;53.080;7.428;2022-07-17T01:30:16;4.43;;;2.57;;
13185;SDS011;6658;53.080;7.428;2022-07-17T01:32:42;3.27;;;2.60;;
13185;SDS011;6658;53.080;7.428;2022-07-17T01:35:09;3.20;;;2.80;;
13185;SDS011;6658;53.080;7.428;2022-07-17T01:37:38;4.97;;;2.80;;
13185;SDS011;6658;53.080;7.428;2022-07-17T01:40:05;5.00;;;2.87;;
13185;SDS011;6658;53.080;7.428;2022-07-17T01:42:32;3.20;;;2.90;;
13185;SDS011;6658;53.080;7.428;2022-07-17T01:44:57;4.70;;;2.73;;
13185;SDS011;6658;53.080;7.428;2022-07-17T01:47:23;3.23;;;2.77;;
13185;SDS011;6658;53.080;7.428;2022-07-17T01:49:50;5.50;;;3.93;;
13185;SDS011;6658;53.080;7.428;2022-07-17T01:52:18;4.33;;;2.90;;
13185;SDS011;6658;53.080;7.428;2022-07-17T01:54:44;4.97;;;2.90;;
13185;SDS011;6658;53.080;7.428;2022-07-17T01:57:10;5.90;;;3.50;;
13185;SDS011;6658;53.080;7.428;2022-07-17T01:59:36;3.67;;;2.53;;
13185;SDS011;6658;53.080;7.428;2022-07-17T02:02:03;4.67;;;2.43;;
13185;SDS011;6658;53.080;7.428;2022-07-17T02:04:30;3.43;;;3.07;;
13185;SDS011;6658;53.080;7.428;2022-07-17T02:06:57;3.87;;;3.03;;
13185;SDS011;6658;53.080;7.428;2022-07-17T02:09:22;4.73;;;3.30;;
13185;SDS011;6658;53.080;7.428;2022-07-17T02:11:48;5.73;;;3.60;;
13185;SDS011;6658;53.080;7.428;2022-07-17T02:14:15;4.67;;;2.80;;
13185;SDS011;6658;53.080;7.428;2022-07-17T02:16:41;5.80;;;2.93;;
13185;SDS011;6658;53.080;7.428;2022-07-17T02:19:06;4.70;;;3.00;;
13185;SDS011;6658;53.080;7.428;2022-07-17T02:21:32;4.27;;;2.90;;
13185;SDS011;6658;53.080;7.428;2022-07-17T02:23:58;3.83;;;3.20;;
13185;SDS011;6658;53.080;7.428;2022-07-17T02:26:23;4.47;;;2.67;;
13185;SDS011;6658;53.080;7.428;2022-07-17T02:28:49;4.30;;;3.30;;
13185;SDS011;6658;53.080;7.428;2022-07-17T02:31:15;3.90;;;2.67;;
13185;SDS011;6658;53.080;7.428;2022-07-17T02:33:40;3.37;;;2.90;;
13185;SDS011;6658;53.080;7.428;2022-07-17T02:36:06;3.90;;;3.27;;
13185;SDS011;6658;53.080;7.428;2022-07-17T02:38:32;4.57;;;3.03;;
13185;SDS011;6658;53.080;7.428;2022-07-17T02:40:58;5.90;;;3.53;;
13185;SDS011;6658;53.080;7.428;2022-07-17T02:43:24;4.57;;;3.27;;
13185;SDS011;6658;53.080;7.428;2022-07-17T02:45:50;4.07;;;2.90;;
13185;SDS011;6658;53.080;7.428;2022-07-17T02:48:15;4.80;;;3.10;;
13185;SDS011;6658;53.080;7.428;2022-07-17T02:50:41;3.93;;;3.33;;
13185;SDS011;6658;53.080;7.428;2022-07-17T02:53:07;3.80;;;3.23;;
13185;SDS011;6658;53.080;7.428;2022-07-17T02:55:32;3.70;;;2.90;;
13185;SDS011;6658;53.080;7.428;2022-07-17T02:57:58;4.10;;;3.27;;
13185;SDS011;6658;53.080;7.428;2022-07-17T03:00:24;4.53;;;2.87;;
13185;SDS011;6658;53.080;7.428;2022-07-17T03:02:52;4.37;;;3.33;;
13185;SDS011;6658;53.080;7.428;2022-07-17T03:05:18;3.20;;;2.90;;
13185;SDS011;6658;53.080;7.428;2022-07-17T03:07:43;4.73;;;3.50;;
13185;SDS011;6658;53.080;7.428;2022-07-17T03:10:09;5.13;;;3.10;;
13185;SDS011;6658;53.080;7.428;2022-07-17T03:12:35;5.40;;;3.57;;
13185;SDS011;6658;53.080;7.428;2022-07-17T03:15:01;3.43;;;3.13;;
13185;SDS011;6658;53.080;7.428;2022-07-17T03:17:27;5.77;;;3.73;;
13185;SDS011;6658;53.080;7.428;2022-07-17T03:19:53;4.27;;;3.47;;
13185;SDS011;6658;53.080;7.428;2022-07-17T03:22:18;3.80;;;3.30;;
13185;SDS011;6658;53.080;7.428;2022-07-17T03:24:44;3.50;;;2.77;;
13185;SDS011;6658;53.080;7.428;2022-07-17T03:27:10;4.90;;;3.50;;
13185;SDS011;6658;53.080;7.428;2022-07-17T03:29:35;4.20;;;3.40;;
13185;SDS011;6658;53.080;7.428;2022-07-17T03:32:01;6.00;;;3.10;;
13185;SDS011;6658;53.080;7.428;2022-07-17T03:34:27;3.93;;;2.80;;
13185;SDS011;6658;53.080;7.428;2022-07-17T03:36:52;9.07;;;3.70;;
13185;SDS011;6658;53.080;7.428;2022-07-17T03:39:18;4.37;;;3.27;;
13185;SDS011;6658;53.080;7.428;2022-07-17T03:41:44;7.07;;;3.97;;
13185;SDS011;6658;53.080;7.428;2022-07-17T03:44:09;3.80;;;3.40;;
13185;SDS011;6658;53.080;7.428;2022-07-17T03:46:35;5.27;;;3.17;;
13185;SDS011;6658;53.080;7.428;2022-07-17T03:49:01;3.87;;;3.03;;
13185;SDS011;6658;53.080;7.428;2022-07-17T03:51:27;4.57;;;3.37;;
13185;SDS011;6658;53.080;7.428;2022-07-17T03:53:53;4.67;;;3.40;;
13185;SDS011;6658;53.080;7.428;2022-07-17T03:56:18;5.13;;;2.97;;
13185;SDS011;6658;53.080;7.428;2022-07-17T03:58:44;4.43;;;3.43;;
13185;SDS011;6658;53.080;7.428;2022-07-17T04:01:10;6.37;;;3.20;;
13185;SDS011;6658;53.080;7.428;2022-07-17T04:03:35;3.87;;;3.43;;
13185;SDS011;6658;53.080;7.428;2022-07-17T04:06:01;5.20;;;2.83;;
13185;SDS011;6658;53.080;7.428;2022-07-17T04:08:27;5.03;;;3.20;;
13185;SDS011;6658;53.080;7.428;2022-07-17T04:10:52;4.13;;;3.27;;
13185;SDS011;6658;53.080;7.428;2022-07-17T04:13:18;5.93;;;3.30;;
13185;SDS011;6658;53.080;7.428;2022-07-17T04:15:44;6.03;;;3.00;;
13185;SDS011;6658;53.080;7.428;2022-07-17T04:18:22;3.63;;;2.90;;
13185;SDS011;6658;53.080;7.428;2022-07-17T04:20:50;4.63;;;2.97;;
13185;SDS011;6658;53.080;7.428;2022-07-17T04:23:16;3.53;;;3.10;;
13185;SDS011;6658;53.080;7.428;2022-07-17T04:25:42;7.03;;;2.93;;
13185;SDS011;6658;53.080;7.428;2022-07-17T04:28:09;5.37;;;3.07;;
13185;SDS011;6658;53.080;7.428;2022-07-17T04:30:35;6.07;;;2.97;;
13185;SDS011;6658;53.080;7.428;2022-07-17T04:33:01;3.50;;;2.70;;
13185;SDS011;6658;53.080;7.428;2022-07-17T04:35:27;4.60;;;2.87;;
13185;SDS011;6658;53.080;7.428;2022-07-17T04:37:53;3.57;;;2.77;;
13185;SDS011;6658;53.080;7.428;2022-07-17T04:40:18;4.00;;;3.23;;
13185;SDS011;6658;53.080;7.428;2022-07-17T04:42:44;3.60;;;2.93;;
13185;SDS011;6658;53.080;7.428;2022-07-17T04:45:10;4.60;;;3.17;;
13185;SDS011;6658;53.080;7.428;2022-07-17T04:47:36;3.73;;;2.33;;
13185;SDS011;6658;53.080;7.428;2022-07-17T04:50:02;4.27;;;3.20;;
13185;SDS011;6658;53.080;7.428;2022-07-17T04:52:28;2.60;;;2.43;;
13185;SDS011;6658;53.080;7.428;2022-07-17T04:54:54;4.37;;;2.57;;
13185;SDS011;6658;53.080;7.428;2022-07-17T04:57:19;5.60;;;2.67;;
13185;SDS011;6658;53.080;7.428;2022-07-17T04:59:45;5.00;;;2.87;;
13185;SDS011;6658;53.080;7.428;2022-07-17T05:02:11;2.87;;;2.43;;
13185;SDS011;6658;53.080;7.428;2022-07-17T05:04:36;3.30;;;2.33;;
13185;SDS011;6658;53.080;7.428;2022-07-17T05:07:02;4.60;;;2.50;;
13185;SDS011;6658;53.080;7.428;2022-07-17T05:09:28;2.60;;;2.40;;
13185;SDS011;6658;53.080;7.428;2022-07-17T05:11:53;4.70;;;2.53;;
13185;SDS011;6658;53.080;7.428;2022-07-17T05:14:19;3.80;;;2.50;;
13185;SDS011;6658;53.080;7.428;2022-07-17T05:16:45;4.10;;;2.20;;
13185;SDS011;6658;53.080;7.428;2022-07-17T05:19:10;2.17;;;2.00;;
13185;SDS011;6658;53.080;7.428;2022-07-17T05:21:36;2.53;;;2.27;;
13185;SDS011;6658;53.080;7.428;2022-07-17T05:24:01;2.83;;;2.40;;
13185;SDS011;6658;53.080;7.428;2022-07-17T05:26:27;4.07;;;2.27;;
13185;SDS011;6658;53.080;7.428;2022-07-17T05:28:53;5.17;;;2.50;;
13185;SDS011;6658;53.080;7.428;2022-07-17T05:31:19;4.17;;;2.37;;
13185;SDS011;6658;53.080;7.428;2022-07-17T05:33:44;3.87;;;2.67;;
13185;SDS011;6658;53.080;7.428;2022-07-17T05:36:10;4.93;;;2.73;;
13185;SDS011;6658;53.080;7.428;2022-07-17T05:38:36;2.67;;;2.47;;
13185;SDS011;6658;53.080;7.428;2022-07-17T05:41:02;6.13;;;2.67;;
13185;SDS011;6658;53.080;7.428;2022-07-17T05:43:28;3.23;;;2.00;;
13185;SDS011;6658;53.080;7.428;2022-07-17T05:45:55;5.03;;;2.40;;
13185;SDS011;6658;53.080;7.428;2022-07-17T05:48:21;4.83;;;2.40;;
13185;SDS011;6658;53.080;7.428;2022-07-17T05:50:47;3.80;;;2.00;;
13185;SDS011;6658;53.080;7.428;2022-07-17T05:53:13;3.20;;;2.00;;
13185;SDS011;6658;53.080;7.428;2022-07-17T05:55:39;4.70;;;2.10;;
13185;SDS011;6658;53.080;7.428;2022-07-17T05:58:06;3.20;;;2.20;;
13185;SDS011;6658;53.080;7.428;2022-07-17T06:00:32;2.10;;;1.67;;
13185;SDS011;6658;53.080;7.428;2022-07-17T06:02:58;7.53;;;2.03;;
13185;SDS011;6658;53.080;7.428;2022-07-17T06:05:24;3.47;;;2.00;;
13185;SDS011;6658;53.080;7.428;2022-07-17T06:07:51;3.80;;;1.67;;
13185;SDS011;6658;53.080;7.428;2022-07-17T06:10:17;3.63;;;1.70;;
13185;SDS011;6658;53.080;7.428;2022-07-17T06:12:44;1.93;;;1.73;;
13185;SDS011;6658;53.080;7.428;2022-07-17T06:15:09;2.83;;;1.83;;
13185;SDS011;6658;53.080;7.428;2022-07-17T06:17:36;2.53;;;1.70;;
13185;SDS011;6658;53.080;7.428;2022-07-17T06:20:02;5.43;;;2.10;;
13185;SDS011;6658;53.080;7.428;2022-07-17T06:22:29;2.00;;;1.57;;
13185;SDS011;6658;53.080;7.428;2022-07-17T06:24:54;2.07;;;1.60;;
13185;SDS011;6658;53.080;7.428;2022-07-17T06:27:20;3.00;;;1.27;;
13185;SDS011;6658;53.080;7.428;2022-07-17T06:29:46;2.87;;;1.30;;
13185;SDS011;6658;53.080;7.428;2022-07-17T06:32:12;3.37;;;1.80;;
13185;SDS011;6658;53.080;7.428;2022-07-17T06:34:38;2.97;;;1.40;;
13185;SDS011;6658;53.080;7.428;2022-07-17T06:37:04;2.77;;;1.50;;
13185;SDS011;6658;53.080;7.428;2022-07-17T06:39:29;2.50;;;1.20;;
13185;SDS011;6658;53.080;7.428;2022-07-17T06:41:55;2.07;;;1.10;;
13185;SDS011;6658;53.080;7.428;2022-07-17T06:44:21;4.50;;;0.93;;
13185;SDS011;6658;53.080;7.428;2022-07-17T06:46:46;2.73;;;1.27;;
13185;SDS011;6658;53.080;7.428;2022-07-17T06:49:12;3.00;;;1.27;;
13185;SDS011;6658;53.080;7.428;2022-07-17T06:51:38;3.50;;;1.10;;
13185;SDS011;6658;53.080;7.428;2022-07-17T06:54:04;1.90;;;1.00;;
13185;SDS011;6658;53.080;7.428;2022-07-17T06:56:30;2.53;;;0.90;;
13185;SDS011;6658;53.080;7.428;2022-07-17T06:58:56;3.47;;;0.93;;
13185;SDS011;6658;53.080;7.428;2022-07-17T07:01:22;3.60;;;1.40;;
13185;SDS011;6658;53.080;7.428;2022-07-17T07:03:48;2.23;;;1.17;;
13185;SDS011;6658;53.080;7.428;2022-07-17T07:06:13;1.80;;;1.10;;
13185;SDS011;6658;53.080;7.428;2022-07-17T07:08:39;3.13;;;1.00;;
13185;SDS011;6658;53.080;7.428;2022-07-17T07:11:05;4.57;;;1.03;;
13185;SDS011;6658;53.080;7.428;2022-07-17T07:13:31;2.00;;;0.80;;
13185;SDS011;6658;53.080;7.428;2022-07-17T07:15:57;4.73;;;1.20;;
13185;SDS011;6658;53.080;7.428;2022-07-17T07:18:22;3.00;;;1.13;;
13185;SDS011;6658;53.080;7.428;2022-07-17T07:20:48;3.87;;;1.03;;
13185;SDS011;6658;53.080;7.428;2022-07-17T07:23:14;3.53;;;1.17;;
13185;SDS011;6658;53.080;7.428;2022-07-17T07:25:39;5.77;;;1.30;;
13185;SDS011;6658;53.080;7.428;2022-07-17T07:28:05;1.90;;;0.93;;
13185;SDS011;6658;53.080;7.428;2022-07-17T07:30:32;2.30;;;0.90;;
13185;SDS011;6658;53.080;7.428;2022-07-17T07:32:57;3.90;;;1.10;;
13185;SDS011;6658;53.080;7.428;2022-07-17T07:35:23;3.67;;;1.00;;
13185;SDS011;6658;53.080;7.428;2022-07-17T07:37:49;1.90;;;0.70;;
13185;SDS011;6658;53.080;7.428;2022-07-17T07:40:15;3.10;;;1.30;;
13185;SDS011;6658;53.080;7.428;2022-07-17T07:42:40;3.97;;;0.83;;
13185;SDS011;6658;53.080;7.428;2022-07-17T07:45:06;1.70;;;0.70;;
13185;SDS011;6658;53.080;7.428;2022-07-17T07:47:39;2.53;;;0.93;;
13185;SDS011;6658;53.080;7.428;2022-07-17T07:50:09;2.57;;;1.00;;
13185;SDS011;6658;53.080;7.428;2022-07-17T07:52:36;3.33;;;0.83;;
13185;SDS011;6658;53.080;7.428;2022-07-17T07:55:03;3.93;;;1.00;;
13185;SDS011;6658;53.080;7.428;2022-07-17T07:57:29;2.20;;;0.80;;
13185;SDS011;6658;53.080;7.428;2022-07-17T07:59:55;2.50;;;1.03;;
13185;SDS011;6658;53.080;7.428;2022-07-17T08:02:20;1.20;;;0.60;;
13185;SDS011;6658;53.080;7.428;2022-07-17T08:04:46;3.13;;;1.27;;
13185;SDS011;6658;53.080;7.428;2022-07-17T08:07:12;3.17;;;0.90;;
13185;SDS011;6658;53.080;7.428;2022-07-17T08:09:37;1.80;;;0.97;;
13185;SDS011;6658;53.080;7.428;2022-07-17T08:12:03;2.07;;;0.70;;
13185;SDS011;6658;53.080;7.428;2022-07-17T08:14:29;1.53;;;0.80;;
13185;SDS011;6658;53.080;7.428;2022-07-17T08:16:54;4.90;;;1.17;;
13185;SDS011;6658;53.080;7.428;2022-07-17T08:19:20;1.03;;;0.80;;
13185;SDS011;6658;53.080;7.428;2022-07-17T08:21:46;3.70;;;0.90;;
13185;SDS011;6658;53.080;7.428;2022-07-17T08:24:11;2.07;;;0.83;;
13185;SDS011;6658;53.080;7.428;2022-07-17T08:26:37;2.53;;;0.90;;
13185;SDS011;6658;53.080;7.428;2022-07-17T08:29:03;2.30;;;0.70;;
13185;SDS011;6658;53.080;7.428;2022-07-17T08:31:29;2.07;;;1.00;;
13185;SDS011;6658;53.080;7.428;2022-07-17T08:33:55;2.80;;;0.80;;
13185;SDS011;6658;53.080;7.428;2022-07-17T08:36:20;3.03;;;1.03;;
13185;SDS011;6658;53.080;7.428;2022-07-17T08:38:46;2.40;;;0.80;;
13185;SDS011;6658;53.080;7.428;2022-07-17T08:41:14;3.70;;;1.00;;
13185;SDS011;6658;53.080;7.428;2022-07-17T08:43:41;3.33;;;0.93;;
13185;SDS011;6658;53.080;7.428;2022-07-17T08:46:09;2.03;;;0.97;;
13185;SDS011;6658;53.080;7.428;2022-07-17T08:48:37;3.87;;;0.97;;
13185;SDS011;6658;53.080;7.428;2022-07-17T08:51:06;1.80;;;0.70;;
13185;SDS011;6658;53.080;7.428;2022-07-17T08:53:33;2.17;;;1.10;;
13185;SDS011;6658;53.080;7.428;2022-07-17T08:56:00;1.23;;;0.80;;
13185;SDS011;6658;53.080;7.428;2022-07-17T08:58:26;3.20;;;0.90;;
13185;SDS011;6658;53.080;7.428;2022-07-17T09:00:51;3.67;;;0.90;;
13185;SDS011;6658;53.080;7.428;2022-07-17T09:03:17;2.27;;;0.90;;
13185;SDS011;6658;53.080;7.428;2022-07-17T09:05:43;1.90;;;1.07;;
13185;SDS011;6658;53.080;7.428;2022-07-17T09:08:15;3.07;;;0.80;;
13185;SDS011;6658;53.080;7.428;2022-07-17T09:10:44;3.30;;;0.87;;
13185;SDS011;6658;53.080;7.428;2022-07-17T09:15:43;4.33;;;1.40;;
13185;SDS011;6658;53.080;7.428;2022-07-17T09:18:10;3.17;;;0.97;;
13185;SDS011;6658;53.080;7.428;2022-07-17T09:20:38;2.47;;;0.97;;
13185;SDS011;6658;53.080;7.428;2022-07-17T09:23:25;2.20;;;1.10;;
13185;SDS011;6658;53.080;7.428;2022-07-17T09:25:52;4.83;;;1.27;;
13185;SDS011;6658;53.080;7.428;2022-07-17T09:28:21;2.57;;;0.90;;
13185;SDS011;6658;53.080;7.428;2022-07-17T09:30:49;3.00;;;1.10;;
13185;SDS011;6658;53.080;7.428;2022-07-17T09:33:17;2.93;;;1.00;;
13185;SDS011;6658;53.080;7.428;2022-07-17T09:35:55;2.87;;;1.03;;
13185;SDS011;6658;53.080;7.428;2022-07-17T09:38:42;2.30;;;0.80;;
13185;SDS011;6658;53.080;7.428;2022-07-17T09:41:13;2.43;;;0.90;;
13185;SDS011;6658;53.080;7.428;2022-07-17T09:46:26;1.43;;;0.83;;
13185;SDS011;6658;53.080;7.428;2022-07-17T09:48:59;1.33;;;0.70;;
13185;SDS011;6658;53.080;7.428;2022-07-17T09:51:35;3.67;;;1.10;;
13185;SDS011;6658;53.080;7.428;2022-07-17T09:54:03;3.40;;;0.90;;
13185;SDS011;6658;53.080;7.428;2022-07-17T09:56:31;3.77;;;1.00;;
13185;SDS011;6658;53.080;7.428;2022-07-17T09:59:07;2.27;;;1.10;;
13185;SDS011;6658;53.080;7.428;2022-07-17T10:01:37;1.60;;;0.60;;
13185;SDS011;6658;53.080;7.428;2022-07-17T10:04:04;1.63;;;0.90;;
13185;SDS011;6658;53.080;7.428;2022-07-17T10:06:30;1.00;;;0.90;;
13185;SDS011;6658;53.080;7.428;2022-07-17T10:08:56;2.73;;;0.83;;
13185;SDS011;6658;53.080;7.428;2022-07-17T10:11:23;3.13;;;1.20;;
13185;SDS011;6658;53.080;7.428;2022-07-17T10:13:52;1.47;;;0.90;;
13185;SDS011;6658;53.080;7.428;2022-07-17T10:16:23;2.87;;;1.40;;
13185;SDS011;6658;53.080;7.428;2022-07-17T10:18:50;2.17;;;0.97;;
13185;SDS011;6658;53.080;7.428;2022-07-17T10:21:19;1.60;;;0.80;;
13185;SDS011;6658;53.080;7.428;2022-07-17T10:29:32;4.00;;;1.17;;
13185;SDS011;6658;53.080;7.428;2022-07-17T10:32:02;1.87;;;0.80;;
13185;SDS011;6658;53.080;7.428;2022-07-17T10:34:36;4.13;;;1.10;;
13185;SDS011;6658;53.080;7.428;2022-07-17T10:40:23;3.13;;;1.03;;
13185;SDS011;6658;53.080;7.428;2022-07-17T10:42:57;4.80;;;0.90;;
13185;SDS011;6658;53.080;7.428;2022-07-17T10:50:19;4.60;;;1.60;;
13185;SDS011;6658;53.080;7.428;2022-07-17T10:52:59;2.03;;;0.90;;
13185;SDS011;6658;53.080;7.428;2022-07-17T10:55:32;1.83;;;0.90;;
13185;SDS011;6658;53.080;7.428;2022-07-17T10:57:58;2.03;;;1.20;;
13185;SDS011;6658;53.080;7.428;2022-07-17T11:00:24;2.60;;;1.10;;
13185;SDS011;6658;53.080;7.428;2022-07-17T11:02:51;1.07;;;0.77;;
13185;SDS011;6658;53.080;7.428;2022-07-17T11:05:18;1.30;;;0.80;;
13185;SDS011;6658;53.080;7.428;2022-07-17T11:07:51;2.20;;;0.90;;
13185;SDS011;6658;53.080;7.428;2022-07-17T11:10:19;2.33;;;1.20;;
13185;SDS011;6658;53.080;7.428;2022-07-17T11:12:46;3.33;;;1.00;;
13185;SDS011;6658;53.080;7.428;2022-07-17T11:15:12;2.10;;;1.10;;
13185;SDS011;6658;53.080;7.428;2022-07-17T11:17:41;3.80;;;1.08;;
13185;SDS011;6658;53.080;7.428;2022-07-17T11:20:09;2.35;;;0.88;;
13185;SDS011;6658;53.080;7.428;2022-07-17T11:22:35;2.63;;;1.00;;
13185;SDS011;6658;53.080;7.428;2022-07-17T11:25:02;2.58;;;1.20;;
13185;SDS011;6658;53.080;7.428;2022-07-17T11:27:30;4.00;;;1.30;;
13185;SDS011;6658;53.080;7.428;2022-07-17T11:29:56;1.95;;;1.10;;
13185;SDS011;6658;53.080;7.428;2022-07-17T11:32:24;4.85;;;1.10;;
13185;SDS011;6658;53.080;7.428;2022-07-17T11:34:57;3.03;;;1.10;;
13185;SDS011;6658;53.080;7.428;2022-07-17T11:37:25;2.75;;;1.15;;
13185;SDS011;6658;53.080;7.428;2022-07-17T11:39:54;2.53;;;1.10;;
13185;SDS011;6658;53.080;7.428;2022-07-17T11:42:21;1.55;;;1.02;;
13185;SDS011;6658;53.080;7.428;2022-07-17T11:44:49;4.22;;;3.15;;
13185;SDS011;6658;53.080;7.428;2022-07-17T11:47:20;3.10;;;1.13;;
13185;SDS011;6658;53.080;7.428;2022-07-17T11:49:47;1.58;;;1.10;;
13185;SDS011;6658;53.080;7.428;2022-07-17T11:52:14;2.10;;;1.38;;
13185;SDS011;6658;53.080;7.428;2022-07-17T11:54:49;3.72;;;1.17;;
13185;SDS011;6658;53.080;7.428;2022-07-17T11:57:17;2.13;;;1.30;;
13185;SDS011;6658;53.080;7.428;2022-07-17T11:59:44;1.73;;;0.97;;
13185;SDS011;6658;53.080;7.428;2022-07-17T12:02:11;2.28;;;1.08;;
13185;SDS011;6658;53.080;7.428;2022-07-17T12:04:48;2.70;;;1.50;;
13185;SDS011;6658;53.080;7.428;2022-07-17T12:07:14;2.03;;;1.00;;
13185;SDS011;6658;53.080;7.428;2022-07-17T12:09:40;4.47;;;1.40;;
13185;SDS011;6658;53.080;7.428;2022-07-17T12:12:06;3.40;;;1.53;;
13185;SDS011;6658;53.080;7.428;2022-07-17T12:14:46;2.73;;;1.10;;
13185;SDS011;6658;53.080;7.428;2022-07-17T12:17:26;2.93;;;1.20;;
13185;SDS011;6658;53.080;7.428;2022-07-17T12:20:06;1.83;;;1.00;;
13185;SDS011;6658;53.080;7.428;2022-07-17T12:22:46;1.33;;;0.90;;
13185;SDS011;6658;53.080;7.428;2022-07-17T12:28:05;3.87;;;1.37;;
13185;SDS011;6658;53.080;7.428;2022-07-17T12:30:30;4.00;;;1.37;;
13185;SDS011;6658;53.080;7.428;2022-07-17T12:32:57;2.43;;;1.33;;
13185;SDS011;6658;53.080;7.428;2022-07-17T12:35:23;2.57;;;1.20;;
13185;SDS011;6658;53.080;7.428;2022-07-17T12:37:48;2.67;;;1.07;;
13185;SDS011;6658;53.080;7.428;2022-07-17T12:40:14;1.30;;;0.90;;
13185;SDS011;6658;53.080;7.428;2022-07-17T12:42:39;3.23;;;1.17;;
13185;SDS011;6658;53.080;7.428;2022-07-17T12:45:05;2.73;;;1.37;;
13185;SDS011;6658;53.080;7.428;2022-07-17T12:47:32;2.00;;;1.20;;
13185;SDS011;6658;53.080;7.428;2022-07-17T12:49:58;1.53;;;1.20;;
13185;SDS011;6658;53.080;7.428;2022-07-17T12:52:23;3.20;;;1.40;;
13185;SDS011;6658;53.080;7.428;2022-07-17T12:54:49;3.07;;;1.30;;
13185;SDS011;6658;53.080;7.428;2022-07-17T12:57:15;2.50;;;1.37;;
13185;SDS011;6658;53.080;7.428;2022-07-17T12:59:41;4.93;;;1.50;;
13185;SDS011;6658;53.080;7.428;2022-07-17T13:02:06;2.23;;;1.43;;
13185;SDS011;6658;53.080;7.428;2022-07-17T13:04:32;2.27;;;1.40;;
13185;SDS011;6658;53.080;7.428;2022-07-17T13:06:58;3.63;;;1.67;;
13185;SDS011;6658;53.080;7.428;2022-07-17T13:09:23;2.67;;;1.20;;
13185;SDS011;6658;53.080;7.428;2022-07-17T13:11:49;1.70;;;1.30;;
13185;SDS011;6658;53.080;7.428;2022-07-17T13:14:17;2.73;;;1.37;;
13185;SDS011;6658;53.080;7.428;2022-07-17T13:16:42;3.53;;;1.83;;
13185;SDS011;6658;53.080;7.428;2022-07-17T13:19:08;1.47;;;1.13;;
13185;SDS011;6658;53.080;7.428;2022-07-17T13:21:34;1.57;;;1.10;;
13185;SDS011;6658;53.080;7.428;2022-07-17T13:24:00;1.93;;;1.30;;
13185;SDS011;6658;53.080;7.428;2022-07-17T13:26:26;1.87;;;1.30;;
13185;SDS011;6658;53.080;7.428;2022-07-17T13:28:51;2.40;;;1.30;;
13185;SDS011;6658;53.080;7.428;2022-07-17T13:31:17;2.63;;;1.63;;
13185;SDS011;6658;53.080;7.428;2022-07-17T13:33:43;2.93;;;1.50;;
13185;SDS011;6658;53.080;7.428;2022-07-17T13:36:09;2.20;;;1.33;;
13185;SDS011;6658;53.080;7.428;2022-07-17T13:38:35;2.07;;;1.50;;
13185;SDS011;6658;53.080;7.428;2022-07-17T13:41:01;2.70;;;1.70;;
13185;SDS011;6658;53.080;7.428;2022-07-17T13:43:27;3.23;;;1.50;;
13185;SDS011;6658;53.080;7.428;2022-07-17T13:45:52;2.50;;;1.57;;
13185;SDS011;6658;53.080;7.428;2022-07-17T13:48:18;1.87;;;1.53;;
13185;SDS011;6658;53.080;7.428;2022-07-17T13:50:44;3.07;;;1.63;;
13185;SDS011;6658;53.080;7.428;2022-07-17T13:53:10;2.53;;;1.60;;
13185;SDS011;6658;53.080;7.428;2022-07-17T13:55:36;2.57;;;1.70;;
13185;SDS011;6658;53.080;7.428;2022-07-17T13:58:03;2.87;;;1.90;;
13185;SDS011;6658;53.080;7.428;2022-07-17T14:00:29;3.73;;;2.13;;
13185;SDS011;6658;53.080;7.428;2022-07-17T14:02:55;3.60;;;2.43;;
13185;SDS011;6658;53.080;7.428;2022-07-17T14:05:21;5.53;;;2.53;;
13185;SDS011;6658;53.080;7.428;2022-07-17T14:07:47;2.20;;;1.60;;
13185;SDS011;6658;53.080;7.428;2022-07-17T14:10:12;2.60;;;2.20;;
13185;SDS011;6658;53.080;7.428;2022-07-17T14:12:38;2.93;;;2.20;;
13185;SDS011;6658;53.080;7.428;2022-07-17T14:15:04;4.37;;;2.33;;
13185;SDS011;6658;53.080;7.428;2022-07-17T14:17:32;3.70;;;2.03;;
13185;SDS011;6658;53.080;7.428;2022-07-17T14:19:58;5.43;;;2.47;;
13185;SDS011;6658;53.080;7.428;2022-07-17T14:22:23;3.97;;;2.30;;
13185;SDS011;6658;53.080;7.428;2022-07-17T14:24:49;3.53;;;2.03;;
13185;SDS011;6658;53.080;7.428;2022-07-17T14:27:15;2.70;;;1.97;;
13185;SDS011;6658;53.080;7.428;2022-07-17T14:29:40;5.80;;;2.30;;
13185;SDS011;6658;53.080;7.428;2022-07-17T14:32:06;3.37;;;1.80;;
13185;SDS011;6658;53.080;7.428;2022-07-17T14:34:32;3.33;;;2.10;;
13185;SDS011;6658;53.080;7.428;2022-07-17T14:36:57;4.73;;;2.40;;
13185;SDS011;6658;53.080;7.428;2022-07-17T14:39:24;5.10;;;2.20;;
13185;SDS011;6658;53.080;7.428;2022-07-17T14:41:51;1.87;;;1.50;;
13185;SDS011;6658;53.080;7.428;2022-07-17T14:44:17;3.00;;;2.03;;
13185;SDS011;6658;53.080;7.428;2022-07-17T14:46:42;3.60;;;2.07;;
13185;SDS011;6658;53.080;7.428;2022-07-17T14:49:08;3.03;;;2.00;;
13185;SDS011;6658;53.080;7.428;2022-07-17T14:51:34;2.57;;;1.90;;
13185;SDS011;6658;53.080;7.428;2022-07-17T14:53:59;3.13;;;2.20;;
13185;SDS011;6658;53.080;7.428;2022-07-17T14:56:25;5.80;;;2.20;;
13185;SDS011;6658;53.080;7.428;2022-07-17T14:58:51;4.60;;;2.40;;
13185;SDS011;6658;53.080;7.428;2022-07-17T15:01:16;3.07;;;2.50;;
13185;SDS011;6658;53.080;7.428;2022-07-17T15:03:42;3.27;;;2.70;;
13185;SDS011;6658;53.080;7.428;2022-07-17T15:06:08;4.33;;;3.10;;
13185;SDS011;6658;53.080;7.428;2022-07-17T15:08:33;3.40;;;2.80;;
13185;SDS011;6658;53.080;7.428;2022-07-17T15:11:01;3.67;;;3.10;;
13185;SDS011;6658;53.080;7.428;2022-07-17T15:13:27;4.67;;;3.40;;
13185;SDS011;6658;53.080;7.428;2022-07-17T15:15:52;3.80;;;3.10;;
13185;SDS011;6658;53.080;7.428;2022-07-17T15:18:18;5.87;;;3.50;;
13185;SDS011;6658;53.080;7.428;2022-07-17T15:20:44;5.70;;;3.07;;